Fort Richardson, AK (99505)

4:00 PM AKST on February 09, 2016 (GMT -0900)
East Anchorage | | Change Station
CLOSE
Current Station
Personal Weather Station
Location: Anchorage, AK
Elevation: 260 ft
Nearby Weather Stations

Elev 260 ft 61.22 °N, 149.72 °W | Updated 2 seconds ago

Clear
Clear
33.3 °F
Feels Like 30 °F
N
3.7
Wind Variable Wind from North
Gusts 7.8 mph

Today
High -- | Low -- °F
--% Chance of Precip.
Yesterday
High -- | Low -- °F
Precip. -- in
Pressure 29.99 in
Visibility 10.0 miles
Clouds Clear
Windchill 30 °F
Dew Point 22 °F
Humidity 63%
Rainfall 0.00 in
Snow Depth Not available.
8:59 AM 5:27 PM
Waxing Crescent, 3% visible
METAR PAFR 100053Z AUTO 30003KT 10SM CLR 00/M07 A2999 RMK AO1
Pressure 29.99 in
Visibility 10.0 miles
Clouds Clear
Windchill 30 °F
Dew Point 22 °F
Humidity 63%
Rainfall 0.00 in
Snow Depth Not available.
8:59 AM 5:27 PM
Waxing Crescent, 3% visible
METAR PAFR 100053Z AUTO 30003KT 10SM CLR 00/M07 A2999 RMK AO1

10-Day Weather Forecast

Almanac

Astronomy

Feb. 09, 2016 Rise Set
Actual Time
Civil Twilight
Nautical Twilight
Astronomical Twilight
Moon
Length of Visible Light
Length of Day
Tomorrow will be .
, % of the Moon is Illuminated

Today's Extremes

State Highs State Lows

Community

WunderPhotos

Upload Photos

1,891,752 photos uploaded!

WunderBlog® & News

Nearby

Air Quality

  Air Quality AQ Index Pollutant
Not available.

Snow Depth

Station Depth Elevation

Earthquake Activity

City Distance Mag. Time & Date
Minimum magnitude displayed is 2.5.

Coastal Water Temperatures

Place Temperature

Stations

Nearby Weather Stations

Station Location Temp. Windchill Dew Point Humidity Wind Precip. Elev Updated Type
                   

Watches & Warnings

There are currently no watches in effect.